sensor_id;sensor_type;location;lat;lon;timestamp;P1;durP1;ratioP1;P2;durP2;ratioP2
22064;SDS011;11197;53.110;8.468;2023-02-01T00:01:37;27.67;;;4.47;;
22064;SDS011;11197;53.110;8.468;2023-02-01T00:04:03;20.35;;;3.55;;
22064;SDS011;11197;53.110;8.468;2023-02-01T00:06:29;20.73;;;3.70;;
22064;SDS011;11197;53.110;8.468;2023-02-01T00:08:55;23.50;;;3.55;;
22064;SDS011;11197;53.110;8.468;2023-02-01T00:11:22;22.42;;;3.20;;
22064;SDS011;11197;53.110;8.468;2023-02-01T00:13:49;24.52;;;3.85;;
22064;SDS011;11197;53.110;8.468;2023-02-01T00:16:20;22.48;;;3.92;;
22064;SDS011;11197;53.110;8.468;2023-02-01T00:18:48;28.40;;;3.92;;
22064;SDS011;11197;53.110;8.468;2023-02-01T00:21:17;26.88;;;4.38;;
22064;SDS011;11197;53.110;8.468;2023-02-01T00:23:45;25.63;;;4.07;;
22064;SDS011;11197;53.110;8.468;2023-02-01T00:26:15;24.63;;;3.95;;
22064;SDS011;11197;53.110;8.468;2023-02-01T00:28:43;24.02;;;4.15;;
22064;SDS011;11197;53.110;8.468;2023-02-01T00:31:09;23.95;;;3.50;;
22064;SDS011;11197;53.110;8.468;2023-02-01T00:33:35;21.80;;;3.67;;
22064;SDS011;11197;53.110;8.468;2023-02-01T00:36:02;27.33;;;3.63;;
22064;SDS011;11197;53.110;8.468;2023-02-01T00:38:30;25.15;;;3.67;;
22064;SDS011;11197;53.110;8.468;2023-02-01T00:41:05;27.40;;;3.90;;
22064;SDS011;11197;53.110;8.468;2023-02-01T00:43:37;21.10;;;3.17;;
22064;SDS011;11197;53.110;8.468;2023-02-01T00:46:04;18.98;;;3.40;;
22064;SDS011;11197;53.110;8.468;2023-02-01T00:48:30;28.00;;;4.00;;
22064;SDS011;11197;53.110;8.468;2023-02-01T00:51:06;25.23;;;3.58;;
22064;SDS011;11197;53.110;8.468;2023-02-01T00:53:38;30.27;;;3.92;;
22064;SDS011;11197;53.110;8.468;2023-02-01T00:56:04;22.98;;;3.75;;
22064;SDS011;11197;53.110;8.468;2023-02-01T00:58:30;25.08;;;4.50;;
22064;SDS011;11197;53.110;8.468;2023-02-01T01:01:16;16.60;;;3.90;;
22064;SDS011;11197;53.110;8.468;2023-02-01T01:03:44;23.45;;;3.97;;
22064;SDS011;11197;53.110;8.468;2023-02-01T01:06:15;21.85;;;3.53;;
22064;SDS011;11197;53.110;8.468;2023-02-01T01:08:43;28.30;;;4.18;;
22064;SDS011;11197;53.110;8.468;2023-02-01T01:11:16;22.85;;;3.53;;
22064;SDS011;11197;53.110;8.468;2023-02-01T01:13:46;21.25;;;3.53;;
22064;SDS011;11197;53.110;8.468;2023-02-01T01:16:13;25.23;;;3.35;;
22064;SDS011;11197;53.110;8.468;2023-02-01T01:18:40;28.38;;;3.50;;
22064;SDS011;11197;53.110;8.468;2023-02-01T01:21:07;23.60;;;3.65;;
22064;SDS011;11197;53.110;8.468;2023-02-01T01:23:34;28.95;;;4.28;;
22064;SDS011;11197;53.110;8.468;2023-02-01T01:26:04;21.92;;;3.63;;
22064;SDS011;11197;53.110;8.468;2023-02-01T01:28:31;26.90;;;3.95;;
22064;SDS011;11197;53.110;8.468;2023-02-01T01:30:57;19.95;;;3.50;;
22064;SDS011;11197;53.110;8.468;2023-02-01T01:33:23;20.42;;;3.30;;
22064;SDS011;11197;53.110;8.468;2023-02-01T01:35:49;25.73;;;4.00;;
22064;SDS011;11197;53.110;8.468;2023-02-01T01:38:15;25.80;;;4.30;;
22064;SDS011;11197;53.110;8.468;2023-02-01T01:40:44;21.42;;;3.45;;
22064;SDS011;11197;53.110;8.468;2023-02-01T01:43:12;24.15;;;3.50;;
22064;SDS011;11197;53.110;8.468;2023-02-01T01:45:45;26.67;;;4.50;;
22064;SDS011;11197;53.110;8.468;2023-02-01T01:50:55;25.33;;;3.42;;
22064;SDS011;11197;53.110;8.468;2023-02-01T01:53:27;19.88;;;3.33;;
22064;SDS011;11197;53.110;8.468;2023-02-01T01:55:55;26.25;;;4.15;;
22064;SDS011;11197;53.110;8.468;2023-02-01T01:58:23;24.98;;;3.42;;
22064;SDS011;11197;53.110;8.468;2023-02-01T02:00:51;22.58;;;3.05;;
22064;SDS011;11197;53.110;8.468;2023-02-01T02:06:00;31.17;;;4.00;;
22064;SDS011;11197;53.110;8.468;2023-02-01T02:08:28;22.33;;;4.18;;
22064;SDS011;11197;53.110;8.468;2023-02-01T02:10:54;23.73;;;3.40;;
22064;SDS011;11197;53.110;8.468;2023-02-01T02:13:31;25.25;;;3.65;;
22064;SDS011;11197;53.110;8.468;2023-02-01T02:43:22;17.48;;;3.20;;
22064;SDS011;11197;53.110;8.468;2023-02-01T02:46:15;23.02;;;3.28;;
22064;SDS011;11197;53.110;8.468;2023-02-01T02:49:23;26.98;;;3.67;;
22064;SDS011;11197;53.110;8.468;2023-02-01T02:54:48;23.85;;;3.13;;
22064;SDS011;11197;53.110;8.468;2023-02-01T03:00:15;18.58;;;3.53;;
22064;SDS011;11197;53.110;8.468;2023-02-01T03:03:06;40.72;;;3.83;;
22064;SDS011;11197;53.110;8.468;2023-02-01T03:05:51;26.33;;;3.55;;
22064;SDS011;11197;53.110;8.468;2023-02-01T03:08:19;23.48;;;3.97;;
22064;SDS011;11197;53.110;8.468;2023-02-01T03:22:02;23.15;;;3.58;;
22064;SDS011;11197;53.110;8.468;2023-02-01T03:24:37;23.13;;;3.97;;
22064;SDS011;11197;53.110;8.468;2023-02-01T03:27:17;19.58;;;3.30;;
22064;SDS011;11197;53.110;8.468;2023-02-01T03:30:06;28.40;;;3.33;;
22064;SDS011;11197;53.110;8.468;2023-02-01T03:32:45;21.67;;;2.97;;
22064;SDS011;11197;53.110;8.468;2023-02-01T03:35:30;22.90;;;3.00;;
22064;SDS011;11197;53.110;8.468;2023-02-01T03:38:18;20.77;;;4.22;;
22064;SDS011;11197;53.110;8.468;2023-02-01T03:40:46;17.50;;;3.03;;
22064;SDS011;11197;53.110;8.468;2023-02-01T03:43:21;19.63;;;2.92;;
22064;SDS011;11197;53.110;8.468;2023-02-01T03:45:53;17.52;;;3.15;;
22064;SDS011;11197;53.110;8.468;2023-02-01T03:48:23;23.42;;;3.45;;
22064;SDS011;11197;53.110;8.468;2023-02-01T03:50:52;17.38;;;3.15;;
22064;SDS011;11197;53.110;8.468;2023-02-01T03:53:22;17.48;;;3.40;;
22064;SDS011;11197;53.110;8.468;2023-02-01T03:55:50;15.48;;;2.60;;
22064;SDS011;11197;53.110;8.468;2023-02-01T03:58:22;23.95;;;3.40;;
22064;SDS011;11197;53.110;8.468;2023-02-01T04:00:58;18.08;;;2.88;;
22064;SDS011;11197;53.110;8.468;2023-02-01T04:03:27;19.35;;;3.42;;
22064;SDS011;11197;53.110;8.468;2023-02-01T04:05:53;17.63;;;3.55;;
22064;SDS011;11197;53.110;8.468;2023-02-01T04:08:23;20.52;;;3.20;;
22064;SDS011;11197;53.110;8.468;2023-02-01T04:10:49;17.95;;;3.15;;
22064;SDS011;11197;53.110;8.468;2023-02-01T04:13:14;18.90;;;3.53;;
22064;SDS011;11197;53.110;8.468;2023-02-01T04:15:40;19.45;;;3.05;;
22064;SDS011;11197;53.110;8.468;2023-02-01T04:18:06;15.40;;;3.25;;
22064;SDS011;11197;53.110;8.468;2023-02-01T04:20:32;24.13;;;3.75;;
22064;SDS011;11197;53.110;8.468;2023-02-01T04:22:58;21.38;;;3.80;;
22064;SDS011;11197;53.110;8.468;2023-02-01T04:25:24;23.67;;;3.47;;
22064;SDS011;11197;53.110;8.468;2023-02-01T04:27:50;17.42;;;3.10;;
22064;SDS011;11197;53.110;8.468;2023-02-01T04:30:16;20.10;;;3.50;;
22064;SDS011;11197;53.110;8.468;2023-02-01T04:32:43;17.63;;;3.20;;
22064;SDS011;11197;53.110;8.468;2023-02-01T04:35:09;21.70;;;3.65;;
22064;SDS011;11197;53.110;8.468;2023-02-01T04:37:36;20.67;;;4.18;;
22064;SDS011;11197;53.110;8.468;2023-02-01T04:40:03;23.02;;;3.97;;
22064;SDS011;11197;53.110;8.468;2023-02-01T04:42:29;24.42;;;3.60;;
22064;SDS011;11197;53.110;8.468;2023-02-01T04:44:55;21.90;;;3.55;;
22064;SDS011;11197;53.110;8.468;2023-02-01T04:47:20;19.85;;;3.58;;
22064;SDS011;11197;53.110;8.468;2023-02-01T04:49:46;21.92;;;4.10;;
22064;SDS011;11197;53.110;8.468;2023-02-01T04:52:12;20.67;;;3.67;;
22064;SDS011;11197;53.110;8.468;2023-02-01T04:54:38;17.55;;;3.55;;
22064;SDS011;11197;53.110;8.468;2023-02-01T04:57:04;24.08;;;4.13;;
22064;SDS011;11197;53.110;8.468;2023-02-01T04:59:30;21.65;;;3.95;;
22064;SDS011;11197;53.110;8.468;2023-02-01T05:01:55;25.02;;;3.67;;
22064;SDS011;11197;53.110;8.468;2023-02-01T05:04:21;19.30;;;3.88;;
22064;SDS011;11197;53.110;8.468;2023-02-01T05:06:50;20.45;;;3.70;;
22064;SDS011;11197;53.110;8.468;2023-02-01T05:09:16;19.55;;;3.60;;
22064;SDS011;11197;53.110;8.468;2023-02-01T05:11:42;21.42;;;3.88;;
22064;SDS011;11197;53.110;8.468;2023-02-01T05:14:26;11.75;;;2.75;;
22064;SDS011;11197;53.110;8.468;2023-02-01T05:16:52;19.52;;;3.35;;
22064;SDS011;11197;53.110;8.468;2023-02-01T05:19:18;17.17;;;3.15;;
22064;SDS011;11197;53.110;8.468;2023-02-01T05:21:44;15.65;;;3.00;;
22064;SDS011;11197;53.110;8.468;2023-02-01T05:24:10;14.70;;;2.67;;
22064;SDS011;11197;53.110;8.468;2023-02-01T05:26:42;17.13;;;3.22;;
22064;SDS011;11197;53.110;8.468;2023-02-01T05:29:08;14.90;;;3.25;;
22064;SDS011;11197;53.110;8.468;2023-02-01T05:31:35;18.48;;;3.20;;
22064;SDS011;11197;53.110;8.468;2023-02-01T05:34:01;14.27;;;3.05;;
22064;SDS011;11197;53.110;8.468;2023-02-01T05:36:30;17.08;;;2.90;;
22064;SDS011;11197;53.110;8.468;2023-02-01T05:38:56;13.80;;;2.78;;
22064;SDS011;11197;53.110;8.468;2023-02-01T05:41:22;16.40;;;3.13;;
22064;SDS011;11197;53.110;8.468;2023-02-01T05:43:48;16.00;;;2.90;;
22064;SDS011;11197;53.110;8.468;2023-02-01T05:46:14;13.23;;;2.67;;
22064;SDS011;11197;53.110;8.468;2023-02-01T05:48:40;14.25;;;3.00;;
22064;SDS011;11197;53.110;8.468;2023-02-01T05:51:07;17.33;;;3.17;;
22064;SDS011;11197;53.110;8.468;2023-02-01T05:53:33;20.02;;;3.40;;
22064;SDS011;11197;53.110;8.468;2023-02-01T05:55:59;21.00;;;3.25;;
22064;SDS011;11197;53.110;8.468;2023-02-01T05:58:26;16.70;;;3.42;;
22064;SDS011;11197;53.110;8.468;2023-02-01T06:00:52;21.85;;;3.35;;
22064;SDS011;11197;53.110;8.468;2023-02-01T06:03:18;18.52;;;3.63;;
22064;SDS011;11197;53.110;8.468;2023-02-01T06:05:45;19.50;;;3.80;;
22064;SDS011;11197;53.110;8.468;2023-02-01T06:08:11;20.27;;;3.70;;
22064;SDS011;11197;53.110;8.468;2023-02-01T06:10:37;21.55;;;3.72;;
22064;SDS011;11197;53.110;8.468;2023-02-01T06:13:03;23.33;;;3.90;;
22064;SDS011;11197;53.110;8.468;2023-02-01T06:15:30;20.98;;;3.63;;
22064;SDS011;11197;53.110;8.468;2023-02-01T06:17:56;25.88;;;4.00;;
22064;SDS011;11197;53.110;8.468;2023-02-01T06:20:23;20.45;;;3.33;;
22064;SDS011;11197;53.110;8.468;2023-02-01T06:22:49;20.52;;;3.50;;
22064;SDS011;11197;53.110;8.468;2023-02-01T06:25:15;23.40;;;3.50;;
22064;SDS011;11197;53.110;8.468;2023-02-01T06:27:42;16.77;;;3.50;;
22064;SDS011;11197;53.110;8.468;2023-02-01T06:30:10;15.95;;;3.00;;
22064;SDS011;11197;53.110;8.468;2023-02-01T06:32:39;22.70;;;3.15;;
22064;SDS011;11197;53.110;8.468;2023-02-01T06:35:08;20.50;;;3.63;;
22064;SDS011;11197;53.110;8.468;2023-02-01T06:37:41;17.00;;;3.00;;
22064;SDS011;11197;53.110;8.468;2023-02-01T06:40:08;18.58;;;2.80;;
22064;SDS011;11197;53.110;8.468;2023-02-01T06:42:34;15.73;;;2.55;;
22064;SDS011;11197;53.110;8.468;2023-02-01T06:45:00;16.63;;;2.65;;
22064;SDS011;11197;53.110;8.468;2023-02-01T06:47:26;14.30;;;2.65;;
22064;SDS011;11197;53.110;8.468;2023-02-01T06:49:52;17.23;;;2.85;;
22064;SDS011;11197;53.110;8.468;2023-02-01T06:52:18;19.83;;;3.28;;
22064;SDS011;11197;53.110;8.468;2023-02-01T06:54:44;15.32;;;3.00;;
22064;SDS011;11197;53.110;8.468;2023-02-01T06:57:10;21.13;;;3.60;;
22064;SDS011;11197;53.110;8.468;2023-02-01T06:59:36;24.23;;;3.17;;
22064;SDS011;11197;53.110;8.468;2023-02-01T07:02:02;17.88;;;3.28;;
22064;SDS011;11197;53.110;8.468;2023-02-01T07:04:28;26.00;;;3.55;;
22064;SDS011;11197;53.110;8.468;2023-02-01T07:06:54;26.98;;;5.00;;
22064;SDS011;11197;53.110;8.468;2023-02-01T07:09:20;20.30;;;3.20;;
22064;SDS011;11197;53.110;8.468;2023-02-01T07:11:45;20.25;;;3.25;;
22064;SDS011;11197;53.110;8.468;2023-02-01T07:14:12;17.48;;;3.50;;
22064;SDS011;11197;53.110;8.468;2023-02-01T07:16:38;20.38;;;3.13;;
22064;SDS011;11197;53.110;8.468;2023-02-01T07:19:04;25.67;;;3.80;;
22064;SDS011;11197;53.110;8.468;2023-02-01T07:21:31;24.20;;;3.22;;
22064;SDS011;11197;53.110;8.468;2023-02-01T07:23:57;23.50;;;3.22;;
22064;SDS011;11197;53.110;8.468;2023-02-01T07:26:23;24.30;;;3.72;;
22064;SDS011;11197;53.110;8.468;2023-02-01T07:28:49;21.65;;;3.15;;
22064;SDS011;11197;53.110;8.468;2023-02-01T07:31:16;25.45;;;3.40;;
22064;SDS011;11197;53.110;8.468;2023-02-01T07:33:46;24.42;;;3.80;;
22064;SDS011;11197;53.110;8.468;2023-02-01T07:36:13;16.48;;;2.70;;
22064;SDS011;11197;53.110;8.468;2023-02-01T07:38:41;23.00;;;3.35;;
22064;SDS011;11197;53.110;8.468;2023-02-01T07:41:10;19.65;;;3.47;;
22064;SDS011;11197;53.110;8.468;2023-02-01T07:43:36;24.67;;;3.47;;
22064;SDS011;11197;53.110;8.468;2023-02-01T07:46:02;14.00;;;3.10;;
22064;SDS011;11197;53.110;8.468;2023-02-01T07:48:29;20.95;;;3.00;;
22064;SDS011;11197;53.110;8.468;2023-02-01T07:50:57;18.48;;;3.47;;
22064;SDS011;11197;53.110;8.468;2023-02-01T07:53:24;17.23;;;3.20;;
22064;SDS011;11197;53.110;8.468;2023-02-01T07:55:50;22.30;;;3.67;;
22064;SDS011;11197;53.110;8.468;2023-02-01T07:58:16;23.65;;;3.38;;
22064;SDS011;11197;53.110;8.468;2023-02-01T08:00:42;17.85;;;3.17;;
22064;SDS011;11197;53.110;8.468;2023-02-01T08:03:27;18.20;;;2.70;;
22064;SDS011;11197;53.110;8.468;2023-02-01T08:05:53;16.92;;;3.50;;
22064;SDS011;11197;53.110;8.468;2023-02-01T08:08:20;21.65;;;3.33;;
22064;SDS011;11197;53.110;8.468;2023-02-01T08:10:46;13.65;;;2.17;;
22064;SDS011;11197;53.110;8.468;2023-02-01T08:13:12;21.45;;;2.80;;
22064;SDS011;11197;53.110;8.468;2023-02-01T08:15:38;21.10;;;3.10;;
22064;SDS011;11197;53.110;8.468;2023-02-01T08:18:04;23.98;;;3.45;;
22064;SDS011;11197;53.110;8.468;2023-02-01T08:20:30;18.52;;;3.00;;
22064;SDS011;11197;53.110;8.468;2023-02-01T08:22:56;21.83;;;3.35;;
22064;SDS011;11197;53.110;8.468;2023-02-01T08:25:23;18.80;;;3.67;;
22064;SDS011;11197;53.110;8.468;2023-02-01T08:27:49;23.30;;;3.30;;
22064;SDS011;11197;53.110;8.468;2023-02-01T08:30:15;17.55;;;2.70;;
22064;SDS011;11197;53.110;8.468;2023-02-01T08:32:41;16.80;;;3.17;;
22064;SDS011;11197;53.110;8.468;2023-02-01T08:35:07;20.05;;;3.33;;
22064;SDS011;11197;53.110;8.468;2023-02-01T08:37:35;18.40;;;3.35;;
22064;SDS011;11197;53.110;8.468;2023-02-01T08:40:02;24.73;;;3.35;;
22064;SDS011;11197;53.110;8.468;2023-02-01T08:42:29;20.92;;;3.38;;
22064;SDS011;11197;53.110;8.468;2023-02-01T08:45:13;21.10;;;3.45;;
22064;SDS011;11197;53.110;8.468;2023-02-01T08:47:39;22.45;;;3.63;;
22064;SDS011;11197;53.110;8.468;2023-02-01T08:50:05;17.90;;;3.50;;
22064;SDS011;11197;53.110;8.468;2023-02-01T08:52:32;23.33;;;3.60;;
22064;SDS011;11197;53.110;8.468;2023-02-01T08:54:57;21.15;;;3.28;;
22064;SDS011;11197;53.110;8.468;2023-02-01T08:57:23;23.40;;;3.72;;
22064;SDS011;11197;53.110;8.468;2023-02-01T08:59:49;20.85;;;3.58;;
22064;SDS011;11197;53.110;8.468;2023-02-01T09:02:15;19.05;;;3.13;;
22064;SDS011;11197;53.110;8.468;2023-02-01T09:04:42;16.27;;;3.00;;
22064;SDS011;11197;53.110;8.468;2023-02-01T09:07:08;21.90;;;3.92;;
22064;SDS011;11197;53.110;8.468;2023-02-01T09:09:35;15.35;;;2.83;;
22064;SDS011;11197;53.110;8.468;2023-02-01T09:12:02;19.88;;;3.75;;
22064;SDS011;11197;53.110;8.468;2023-02-01T09:14:28;22.15;;;3.47;;
22064;SDS011;11197;53.110;8.468;2023-02-01T09:16:54;21.83;;;3.13;;
22064;SDS011;11197;53.110;8.468;2023-02-01T09:19:20;20.05;;;3.38;;
22064;SDS011;11197;53.110;8.468;2023-02-01T09:21:46;19.83;;;2.83;;
22064;SDS011;11197;53.110;8.468;2023-02-01T09:24:12;20.40;;;3.60;;
22064;SDS011;11197;53.110;8.468;2023-02-01T09:26:38;25.55;;;3.33;;
22064;SDS011;11197;53.110;8.468;2023-02-01T09:29:05;19.20;;;3.03;;
22064;SDS011;11197;53.110;8.468;2023-02-01T09:31:37;21.80;;;3.80;;
22064;SDS011;11197;53.110;8.468;2023-02-01T09:34:04;18.63;;;2.78;;
22064;SDS011;11197;53.110;8.468;2023-02-01T09:36:30;19.48;;;3.40;;
22064;SDS011;11197;53.110;8.468;2023-02-01T09:38:58;18.40;;;3.20;;
22064;SDS011;11197;53.110;8.468;2023-02-01T09:47:20;20.27;;;3.10;;
22064;SDS011;11197;53.110;8.468;2023-02-01T09:58:22;19.27;;;3.17;;
22064;SDS011;11197;53.110;8.468;2023-02-01T10:01:04;20.65;;;3.60;;
22064;SDS011;11197;53.110;8.468;2023-02-01T10:03:38;19.85;;;3.28;;
22064;SDS011;11197;53.110;8.468;2023-02-01T10:06:07;20.10;;;3.55;;
22064;SDS011;11197;53.110;8.468;2023-02-01T10:11:27;21.88;;;3.30;;
22064;SDS011;11197;53.110;8.468;2023-02-01T10:17:30;21.15;;;3.13;;
22064;SDS011;11197;53.110;8.468;2023-02-01T10:25:37;20.48;;;3.30;;
22064;SDS011;11197;53.110;8.468;2023-02-01T10:28:09;22.60;;;3.20;;
22064;SDS011;11197;53.110;8.468;2023-02-01T10:30:44;20.55;;;3.30;;
22064;SDS011;11197;53.110;8.468;2023-02-01T10:35:55;22.80;;;3.38;;
22064;SDS011;11197;53.110;8.468;2023-02-01T10:38:29;21.92;;;3.25;;
22064;SDS011;11197;53.110;8.468;2023-02-01T10:40:59;12.65;;;2.90;;
22064;SDS011;11197;53.110;8.468;2023-02-01T10:43:29;19.23;;;3.03;;
22064;SDS011;11197;53.110;8.468;2023-02-01T10:45:56;18.33;;;2.90;;
22064;SDS011;11197;53.110;8.468;2023-02-01T10:48:22;16.17;;;2.92;;
22064;SDS011;11197;53.110;8.468;2023-02-01T10:53:39;13.63;;;3.15;;
22064;SDS011;11197;53.110;8.468;2023-02-01T10:56:24;20.15;;;3.92;;
22064;SDS011;11197;53.110;8.468;2023-02-01T10:59:02;15.93;;;3.15;;
22064;SDS011;11197;53.110;8.468;2023-02-01T11:01:31;16.95;;;2.75;;
22064;SDS011;11197;53.110;8.468;2023-02-01T11:11:32;15.00;;;3.03;;
22064;SDS011;11197;53.110;8.468;2023-02-01T11:13:59;10.77;;;2.75;;
22064;SDS011;11197;53.110;8.468;2023-02-01T11:16:39;22.65;;;3.33;;
22064;SDS011;11197;53.110;8.468;2023-02-01T11:19:06;15.40;;;3.20;;
22064;SDS011;11197;53.110;8.468;2023-02-01T11:21:32;17.65;;;3.08;;
22064;SDS011;11197;53.110;8.468;2023-02-01T11:24:03;14.90;;;3.17;;
22064;SDS011;11197;53.110;8.468;2023-02-01T11:26:30;14.30;;;3.05;;
22064;SDS011;11197;53.110;8.468;2023-02-01T11:31:24;8.98;;;2.08;;
22064;SDS011;11197;53.110;8.468;2023-02-01T11:33:53;8.98;;;1.80;;
22064;SDS011;11197;53.110;8.468;2023-02-01T11:36:24;13.00;;;2.30;;
22064;SDS011;11197;53.110;8.468;2023-02-01T11:39:39;9.25;;;2.00;;
22064;SDS011;11197;53.110;8.468;2023-02-01T11:41:43;10.25;;;2.47;;
22064;SDS011;11197;53.110;8.468;2023-02-01T11:44:26;12.73;;;2.38;;
22064;SDS011;11197;53.110;8.468;2023-02-01T11:49:46;8.13;;;2.30;;
22064;SDS011;11197;53.110;8.468;2023-02-01T11:52:27;9.93;;;2.25;;
22064;SDS011;11197;53.110;8.468;2023-02-01T11:55:05;9.73;;;2.25;;
22064;SDS011;11197;53.110;8.468;2023-02-01T12:00:40;12.90;;;2.15;;
22064;SDS011;11197;53.110;8.468;2023-02-01T12:09:12;10.63;;;1.90;;
22064;SDS011;11197;53.110;8.468;2023-02-01T12:30:35;1.45;;;0.20;;
22064;SDS011;11197;53.110;8.468;2023-02-01T12:33:30;2.38;;;0.68;;
22064;SDS011;11197;53.110;8.468;2023-02-01T12:46:53;5.00;;;1.67;;
22064;SDS011;11197;53.110;8.468;2023-02-01T12:49:42;3.58;;;1.08;;
22064;SDS011;11197;53.110;8.468;2023-02-01T12:52:10;5.45;;;1.40;;
22064;SDS011;11197;53.110;8.468;2023-02-01T12:54:58;5.20;;;1.65;;
22064;SDS011;11197;53.110;8.468;2023-02-01T12:57:33;16.65;;;5.95;;
22064;SDS011;11197;53.110;8.468;2023-02-01T13:05:23;6.28;;;2.75;;
22064;SDS011;11197;53.110;8.468;2023-02-01T13:08:38;3.47;;;1.40;;
22064;SDS011;11197;53.110;8.468;2023-02-01T13:11:00;4.45;;;1.40;;
22064;SDS011;11197;53.110;8.468;2023-02-01T13:13:32;7.38;;;1.60;;
22064;SDS011;11197;53.110;8.468;2023-02-01T13:16:25;8.70;;;1.35;;
22064;SDS011;11197;53.110;8.468;2023-02-01T13:21:45;5.32;;;1.80;;
22064;SDS011;11197;53.110;8.468;2023-02-01T13:24:22;7.35;;;1.58;;
22064;SDS011;11197;53.110;8.468;2023-02-01T13:26:55;7.75;;;2.40;;
22064;SDS011;11197;53.110;8.468;2023-02-01T13:29:21;5.43;;;1.35;;
22064;SDS011;11197;53.110;8.468;2023-02-01T13:43:30;7.68;;;1.95;;
22064;SDS011;11197;53.110;8.468;2023-02-01T13:45:53;6.18;;;1.77;;
22064;SDS011;11197;53.110;8.468;2023-02-01T13:48:23;8.18;;;1.80;;
22064;SDS011;11197;53.110;8.468;2023-02-01T13:56:56;12.25;;;3.08;;
22064;SDS011;11197;53.110;8.468;2023-02-01T14:05:10;22.02;;;4.72;;
22064;SDS011;11197;53.110;8.468;2023-02-01T14:10:46;22.90;;;5.28;;
22064;SDS011;11197;53.110;8.468;2023-02-01T14:23:44;15.43;;;2.60;;
22064;SDS011;11197;53.110;8.468;2023-02-01T14:26:13;17.27;;;5.22;;
22064;SDS011;11197;53.110;8.468;2023-02-01T14:28:44;20.40;;;4.85;;
22064;SDS011;11197;53.110;8.468;2023-02-01T14:31:18;22.63;;;4.63;;
22064;SDS011;11197;53.110;8.468;2023-02-01T14:33:54;19.23;;;3.20;;
22064;SDS011;11197;53.110;8.468;2023-02-01T14:36:24;20.83;;;3.90;;
22064;SDS011;11197;53.110;8.468;2023-02-01T14:38:50;22.10;;;3.67;;
22064;SDS011;11197;53.110;8.468;2023-02-01T14:41:29;19.25;;;2.95;;
22064;SDS011;11197;53.110;8.468;2023-02-01T14:49:29;20.95;;;2.67;;
22064;SDS011;11197;53.110;8.468;2023-02-01T14:51:57;20.98;;;3.08;;
22064;SDS011;11197;53.110;8.468;2023-02-01T14:54:25;24.13;;;3.30;;
22064;SDS011;11197;53.110;8.468;2023-02-01T14:56:52;23.25;;;3.58;;
22064;SDS011;11197;53.110;8.468;2023-02-01T14:59:20;22.10;;;3.60;;
22064;SDS011;11197;53.110;8.468;2023-02-01T15:01:53;23.88;;;3.42;;
22064;SDS011;11197;53.110;8.468;2023-02-01T15:04:24;23.52;;;3.63;;
22064;SDS011;11197;53.110;8.468;2023-02-01T15:06:56;26.90;;;3.58;;
22064;SDS011;11197;53.110;8.468;2023-02-01T15:12:02;21.30;;;3.60;;
22064;SDS011;11197;53.110;8.468;2023-02-01T15:14:36;21.75;;;3.05;;
22064;SDS011;11197;53.110;8.468;2023-02-01T15:17:02;27.95;;;3.35;;
22064;SDS011;11197;53.110;8.468;2023-02-01T15:19:41;23.63;;;2.92;;
22064;SDS011;11197;53.110;8.468;2023-02-01T15:22:25;21.58;;;3.15;;
22064;SDS011;11197;53.110;8.468;2023-02-01T15:24:52;20.05;;;2.92;;
22064;SDS011;11197;53.110;8.468;2023-02-01T15:27:19;26.30;;;3.55;;
22064;SDS011;11197;53.110;8.468;2023-02-01T15:29:45;23.88;;;3.38;;
22064;SDS011;11197;53.110;8.468;2023-02-01T15:32:34;18.23;;;3.55;;
22064;SDS011;11197;53.110;8.468;2023-02-01T15:35:05;22.40;;;3.15;;
22064;SDS011;11197;53.110;8.468;2023-02-01T15:37:51;22.83;;;3.05;;
22064;SDS011;11197;53.110;8.468;2023-02-01T15:40:20;26.30;;;3.88;;
22064;SDS011;11197;53.110;8.468;2023-02-01T15:42:51;20.95;;;3.47;;
22064;SDS011;11197;53.110;8.468;2023-02-01T15:45:19;22.83;;;3.60;;
22064;SDS011;11197;53.110;8.468;2023-02-01T15:47:54;25.48;;;3.28;;
22064;SDS011;11197;53.110;8.468;2023-02-01T15:50:22;24.77;;;3.53;;
22064;SDS011;11197;53.110;8.468;2023-02-01T15:52:49;15.93;;;2.95;;
22064;SDS011;11197;53.110;8.468;2023-02-01T15:57:45;22.27;;;3.50;;
22064;SDS011;11197;53.110;8.468;2023-02-01T16:00:21;21.85;;;3.05;;
22064;SDS011;11197;53.110;8.468;2023-02-01T16:02:55;15.07;;;2.60;;
22064;SDS011;11197;53.110;8.468;2023-02-01T16:10:39;16.27;;;2.85;;
22064;SDS011;11197;53.110;8.468;2023-02-01T16:13:06;16.95;;;2.60;;
22064;SDS011;11197;53.110;8.468;2023-02-01T16:15:32;16.30;;;2.30;;
22064;SDS011;11197;53.110;8.468;2023-02-01T16:17:58;11.20;;;1.95;;
22064;SDS011;11197;53.110;8.468;2023-02-01T16:20:24;14.43;;;2.05;;
22064;SDS011;11197;53.110;8.468;2023-02-01T16:22:50;11.23;;;2.10;;
22064;SDS011;11197;53.110;8.468;2023-02-01T16:25:16;11.35;;;1.70;;
22064;SDS011;11197;53.110;8.468;2023-02-01T16:27:42;9.23;;;1.58;;
22064;SDS011;11197;53.110;8.468;2023-02-01T16:30:08;12.27;;;1.60;;
22064;SDS011;11197;53.110;8.468;2023-02-01T16:32:36;8.98;;;1.50;;
22064;SDS011;11197;53.110;8.468;2023-02-01T16:35:13;11.52;;;1.52;;
22064;SDS011;11197;53.110;8.468;2023-02-01T16:37:48;7.75;;;1.70;;
22064;SDS011;11197;53.110;8.468;2023-02-01T16:40:14;11.48;;;1.77;;
22064;SDS011;11197;53.110;8.468;2023-02-01T16:42:41;10.10;;;1.80;;
22064;SDS011;11197;53.110;8.468;2023-02-01T16:45:07;11.68;;;2.70;;
22064;SDS011;11197;53.110;8.468;2023-02-01T16:47:34;12.88;;;1.80;;
22064;SDS011;11197;53.110;8.468;2023-02-01T16:50:03;14.93;;;2.67;;
22064;SDS011;11197;53.110;8.468;2023-02-01T16:52:29;13.88;;;2.25;;
22064;SDS011;11197;53.110;8.468;2023-02-01T16:54:55;15.52;;;2.60;;
22064;SDS011;11197;53.110;8.468;2023-02-01T16:57:21;20.10;;;2.47;;
22064;SDS011;11197;53.110;8.468;2023-02-01T16:59:52;18.58;;;3.08;;
22064;SDS011;11197;53.110;8.468;2023-02-01T17:02:19;26.65;;;3.53;;
22064;SDS011;11197;53.110;8.468;2023-02-01T17:04:46;24.25;;;3.80;;
22064;SDS011;11197;53.110;8.468;2023-02-01T17:07:17;22.00;;;3.30;;
22064;SDS011;11197;53.110;8.468;2023-02-01T17:09:44;24.20;;;3.38;;
22064;SDS011;11197;53.110;8.468;2023-02-01T17:12:43;22.48;;;3.53;;
22064;SDS011;11197;53.110;8.468;2023-02-01T17:15:03;20.00;;;3.25;;
22064;SDS011;11197;53.110;8.468;2023-02-01T17:17:32;23.50;;;3.13;;
22064;SDS011;11197;53.110;8.468;2023-02-01T17:20:02;26.42;;;3.83;;
22064;SDS011;11197;53.110;8.468;2023-02-01T17:22:29;24.92;;;3.85;;
22064;SDS011;11197;53.110;8.468;2023-02-01T17:24:55;21.70;;;4.03;;
22064;SDS011;11197;53.110;8.468;2023-02-01T17:27:20;19.40;;;3.28;;
22064;SDS011;11197;53.110;8.468;2023-02-01T17:29:46;24.52;;;3.67;;
22064;SDS011;11197;53.110;8.468;2023-02-01T17:32:18;24.92;;;3.58;;
22064;SDS011;11197;53.110;8.468;2023-02-01T17:34:47;20.58;;;3.63;;
22064;SDS011;11197;53.110;8.468;2023-02-01T17:39:56;27.52;;;3.63;;
22064;SDS011;11197;53.110;8.468;2023-02-01T17:42:23;27.75;;;4.00;;
22064;SDS011;11197;53.110;8.468;2023-02-01T17:44:50;23.58;;;3.50;;
22064;SDS011;11197;53.110;8.468;2023-02-01T17:47:19;23.10;;;4.00;;
22064;SDS011;11197;53.110;8.468;2023-02-01T17:49:45;25.73;;;3.83;;
22064;SDS011;11197;53.110;8.468;2023-02-01T17:52:16;25.77;;;3.53;;
22064;SDS011;11197;53.110;8.468;2023-02-01T17:54:43;23.10;;;2.97;;
22064;SDS011;11197;53.110;8.468;2023-02-01T17:57:11;26.55;;;3.47;;
22064;SDS011;11197;53.110;8.468;2023-02-01T17:59:37;18.48;;;2.95;;
22064;SDS011;11197;53.110;8.468;2023-02-01T18:02:09;30.52;;;3.97;;
22064;SDS011;11197;53.110;8.468;2023-02-01T18:04:46;25.73;;;3.72;;
22064;SDS011;11197;53.110;8.468;2023-02-01T18:07:13;22.50;;;3.60;;